Time;durP1;ratioP1;P1;durP2;ratioP2;P2;SDS_P1;SDS_P2;PMS_P1;PMS_P2;Temp;Humidity;BMP_temperature;BMP_pressure;BME280_temperature;BME280_humidity;BME280_pressure;Samples;Min_cycle;Max_cycle;Signal;HPM_P1;HPM_P2
2023/04/03 00:01:42;;;;;;;3.67;1.47;;;5.30;99.90;;;;;;4924328;28;36625;-74
2023/04/03 00:04:08;;;;;;;1.43;1.30;;;5.30;99.90;;;;;;4932393;28;39165;-74
2023/04/03 00:06:34;;;;;;;2.83;1.40;;;5.30;99.90;;;;;;4938466;28;38682;-74
2023/04/03 00:09:01;;;;;;;3.53;1.37;;;5.20;99.90;;;;;;4939708;28;36878;-74
2023/04/03 00:11:27;;;;;;;2.30;1.17;;;5.20;99.90;;;;;;4912866;29;47154;-74
2023/04/03 00:13:53;;;;;;;2.33;1.43;;;5.20;99.90;;;;;;4917328;28;37480;-74
2023/04/03 00:16:19;;;;;;;2.57;1.50;;;5.20;99.90;;;;;;4926141;28;38555;-74
2023/04/03 00:18:45;;;;;;;2.83;1.20;;;5.10;99.90;;;;;;4927047;28;37289;-73
2023/04/03 00:21:13;;;;;;;3.73;1.53;;;5.00;99.90;;;;;;4904124;29;35013;-74
2023/04/03 00:23:39;;;;;;;4.80;1.70;;;5.00;99.90;;;;;;4927554;28;39006;-74
2023/04/03 00:26:05;;;;;;;4.57;1.43;;;5.00;99.90;;;;;;4927212;28;38446;-74
2023/04/03 00:28:32;;;;;;;2.50;1.33;;;4.90;99.90;;;;;;4933745;28;37971;-74
2023/04/03 00:30:58;;;;;;;2.47;1.47;;;4.90;99.90;;;;;;4913274;29;37463;-74
2023/04/03 00:33:24;;;;;;;3.83;1.10;;;4.90;99.90;;;;;;4908974;28;37688;-73
2023/04/03 00:35:51;;;;;;;6.70;1.30;;;4.90;99.90;;;;;;4924966;28;37433;-74
2023/04/03 00:38:17;;;;;;;6.33;1.50;;;4.80;99.90;;;;;;4938088;28;36820;-74
2023/04/03 00:40:46;;;;;;;2.90;1.20;;;4.80;99.90;;;;;;4931255;28;37604;-74
2023/04/03 00:43:19;;;;;;;2.63;1.33;;;4.80;99.90;;;;;;4929510;28;38837;-74
2023/04/03 00:45:47;;;;;;;3.03;1.40;;;4.70;99.90;;;;;;4913034;29;37865;-74
2023/04/03 00:48:30;;;;;;;3.70;1.10;;;4.70;99.90;;;;;;4932878;28;36744;-74
2023/04/03 00:50:57;;;;;;;3.35;1.38;;;4.60;99.90;;;;;;4930116;28;36949;-71
2023/04/03 00:53:27;;;;;;;4.27;1.80;;;4.60;99.90;;;;;;4910408;29;38648;-73
2023/04/03 00:55:55;;;;;;;2.93;1.40;;;4.60;99.90;;;;;;4925238;28;38156;-72
2023/04/03 00:58:35;;;;;;;3.70;1.60;;;4.60;99.90;;;;;;4927136;28;38646;-72
2023/04/03 01:03:38;;;;;;;4.27;1.40;;;4.50;99.90;;;;;;4990138;23;20091;-71
2023/04/03 01:06:04;;;;;;;3.53;1.20;;;4.50;99.90;;;;;;4900066;29;36998;-72
2023/04/03 01:08:30;;;;;;;5.27;1.50;;;4.50;99.90;;;;;;4908589;29;36983;-72
2023/04/03 01:10:56;;;;;;;2.47;1.57;;;4.50;99.90;;;;;;4919792;28;37433;-72
2023/04/03 01:13:29;;;;;;;4.50;1.60;;;4.50;99.90;;;;;;4921534;28;39874;-70
2023/04/03 01:15:56;;;;;;;2.73;1.50;;;4.50;99.90;;;;;;4906351;28;38669;-71
2023/04/03 01:18:26;;;;;;;5.23;1.50;;;4.50;99.90;;;;;;4906915;29;37172;-71
2023/04/03 01:20:55;;;;;;;4.40;1.60;;;4.50;99.90;;;;;;4901552;28;36276;-71
2023/04/03 01:23:41;;;;;;;5.07;1.70;;;4.40;99.90;;;;;;4920386;28;38744;-71
2023/04/03 01:26:09;;;;;;;3.30;1.60;;;4.40;99.90;;;;;;4903976;29;38327;-72
2023/04/03 01:28:36;;;;;;;3.80;1.73;;;4.40;99.90;;;;;;4903080;29;37824;-71
2023/04/03 01:31:35;;;;;;;3.90;1.70;;;4.30;99.90;;;;;;4920209;28;36867;-72
2023/04/03 01:34:03;;;;;;;5.87;1.53;;;4.30;99.90;;;;;;4926770;28;38849;-73
2023/04/03 01:36:31;;;;;;;2.63;1.60;;;4.30;99.90;;;;;;4900747;29;38662;-71
2023/04/03 01:38:59;;;;;;;3.33;1.67;;;4.20;99.90;;;;;;4928794;29;38179;-72
2023/04/03 01:41:26;;;;;;;2.50;1.40;;;4.20;99.90;;;;;;4900001;29;37541;-72
2023/04/03 01:43:52;;;;;;;6.77;1.60;;;4.20;99.90;;;;;;4926235;29;39004;-71
2023/04/03 01:46:19;;;;;;;4.57;1.60;;;4.20;99.90;;;;;;4928297;28;38566;-72
2023/04/03 01:48:46;;;;;;;6.60;2.33;;;4.10;99.90;;;;;;4912822;29;38363;-71
2023/04/03 01:51:12;;;;;;;2.67;1.50;;;4.10;99.90;;;;;;4914175;28;39317;-72
2023/04/03 01:53:38;;;;;;;2.73;1.83;;;4.00;99.90;;;;;;4920670;29;38170;-71
2023/04/03 01:56:05;;;;;;;3.17;1.57;;;4.00;99.90;;;;;;4912316;29;38690;-71
2023/04/03 01:58:31;;;;;;;4.93;1.63;;;3.90;99.90;;;;;;4926260;28;37991;-71
2023/04/03 02:00:57;;;;;;;5.07;1.47;;;3.90;99.90;;;;;;4934356;28;36432;-71
2023/04/03 02:03:24;;;;;;;2.43;1.67;;;3.90;99.90;;;;;;4929007;28;39907;-71
2023/04/03 02:05:50;;;;;;;6.07;1.87;;;3.90;99.90;;;;;;4928675;28;39368;-71
2023/04/03 02:08:17;;;;;;;2.80;1.77;;;3.90;99.90;;;;;;4921962;28;37906;-71
2023/04/03 02:10:47;;;;;;;4.03;1.70;;;3.80;99.90;;;;;;4931456;28;36963;-71
2023/04/03 02:13:13;;;;;;;4.23;1.50;;;3.80;99.90;;;;;;4922142;28;37468;-71
2023/04/03 02:15:39;;;;;;;3.80;1.90;;;3.80;99.90;;;;;;4911632;28;37303;-71
2023/04/03 02:18:06;;;;;;;2.87;1.43;;;3.80;99.90;;;;;;4933177;28;38796;-71
2023/04/03 02:20:32;;;;;;;4.43;1.60;;;3.70;99.90;;;;;;4932286;28;36899;-71
2023/04/03 02:22:59;;;;;;;4.20;1.90;;;3.60;99.90;;;;;;4931680;28;39687;-71
2023/04/03 02:25:25;;;;;;;5.37;1.93;;;3.60;99.90;;;;;;4934133;28;38158;-71
2023/04/03 02:27:52;;;;;;;2.90;1.27;;;3.60;99.90;;;;;;4934125;28;38530;-71
2023/04/03 02:30:18;;;;;;;4.87;1.60;;;3.60;99.90;;;;;;4928591;28;37867;-71
2023/04/03 02:32:44;;;;;;;2.90;1.50;;;3.60;99.90;;;;;;4929724;28;38998;-72
2023/04/03 02:35:11;;;;;;;2.83;1.60;;;3.60;99.90;;;;;;4923979;28;38419;-72
2023/04/03 02:37:38;;;;;;;3.73;1.73;;;3.60;99.90;;;;;;4914650;29;37227;-71
2023/04/03 02:40:05;;;;;;;4.17;1.87;;;3.50;99.90;;;;;;4915400;28;35843;-71
2023/04/03 02:42:32;;;;;;;3.97;1.63;;;3.50;99.90;;;;;;4905164;28;39142;-71
2023/04/03 02:45:00;;;;;;;4.17;1.40;;;3.40;99.90;;;;;;4906171;28;37917;-71
2023/04/03 02:47:27;;;;;;;3.90;1.70;;;3.30;99.90;;;;;;4920828;28;39001;-71
2023/04/03 02:49:53;;;;;;;5.43;2.03;;;3.30;99.90;;;;;;4929298;28;37282;-71
2023/04/03 02:52:20;;;;;;;4.53;1.83;;;3.30;99.90;;;;;;4915149;29;37580;-71
2023/04/03 02:54:46;;;;;;;6.10;2.03;;;3.30;99.90;;;;;;4918231;29;37305;-71
2023/04/03 02:57:12;;;;;;;4.00;1.60;;;3.20;99.90;;;;;;4926686;28;38122;-71
2023/04/03 02:59:41;;;;;;;2.50;1.77;;;3.20;99.90;;;;;;4931050;28;37318;-71
2023/04/03 03:02:08;;;;;;;3.10;1.73;;;3.10;99.90;;;;;;4929268;28;39320;-71
2023/04/03 03:04:35;;;;;;;3.80;1.90;;;3.10;99.90;;;;;;4929916;28;39390;-71
2023/04/03 03:07:02;;;;;;;4.10;1.67;;;3.10;99.90;;;;;;4927360;28;37905;-71
2023/04/03 03:09:29;;;;;;;3.63;1.83;;;3.10;99.90;;;;;;4929615;28;48423;-71
2023/04/03 03:11:56;;;;;;;4.37;2.03;;;3.10;99.90;;;;;;4918564;28;38621;-71
2023/04/03 03:14:26;;;;;;;5.33;1.90;;;3.00;99.90;;;;;;4913234;28;38775;-72
2023/04/03 03:16:52;;;;;;;5.13;2.00;;;3.00;99.90;;;;;;4911381;28;37347;-71
2023/04/03 03:19:18;;;;;;;5.00;2.13;;;3.00;99.90;;;;;;4914766;28;36786;-71
2023/04/03 03:21:44;;;;;;;5.67;2.20;;;2.90;99.90;;;;;;4911189;28;37991;-71
2023/04/03 03:24:11;;;;;;;6.40;1.60;;;2.80;99.90;;;;;;4930546;28;39935;-71
2023/04/03 03:26:37;;;;;;;4.83;2.40;;;2.80;99.90;;;;;;4911806;29;37187;-71
2023/04/03 03:29:04;;;;;;;4.60;2.30;;;2.70;99.90;;;;;;4916568;29;36300;-71
2023/04/03 03:31:30;;;;;;;3.80;2.10;;;2.70;99.90;;;;;;4929780;28;40090;-71
2023/04/03 03:33:56;;;;;;;7.33;2.23;;;2.70;99.90;;;;;;4916321;29;39547;-71
2023/04/03 03:36:22;;;;;;;4.97;2.23;;;2.70;99.90;;;;;;4913255;28;36864;-72
2023/04/03 03:38:48;;;;;;;3.90;2.10;;;2.60;99.90;;;;;;4928690;28;36928;-71
2023/04/03 03:41:14;;;;;;;6.00;2.10;;;2.60;99.90;;;;;;4921478;28;38107;-71
2023/04/03 03:43:41;;;;;;;2.97;2.10;;;2.60;99.90;;;;;;4928485;28;38522;-71
2023/04/03 03:46:07;;;;;;;3.27;1.97;;;2.60;99.90;;;;;;4910335;28;36672;-71
2023/04/03 03:48:33;;;;;;;3.53;2.10;;;2.60;99.90;;;;;;4931193;28;37062;-72
2023/04/03 03:50:59;;;;;;;3.63;2.10;;;2.60;99.90;;;;;;4919112;29;37710;-71
2023/04/03 03:53:25;;;;;;;3.87;2.00;;;2.60;99.90;;;;;;4916637;28;37500;-71
2023/04/03 03:55:51;;;;;;;7.00;2.77;;;2.60;99.90;;;;;;4927860;28;39904;-72
2023/04/03 03:58:17;;;;;;;4.53;2.50;;;2.60;99.90;;;;;;4916204;28;37802;-72
2023/04/03 04:00:44;;;;;;;5.07;1.97;;;2.60;99.90;;;;;;4929025;28;39662;-72
2023/04/03 04:03:10;;;;;;;7.43;2.77;;;2.50;99.90;;;;;;4914876;28;38218;-71
2023/04/03 04:05:36;;;;;;;5.50;2.40;;;2.50;99.90;;;;;;4925403;28;38034;-71
2023/04/03 04:08:02;;;;;;;4.77;2.20;;;2.50;99.90;;;;;;4918649;28;36560;-70
2023/04/03 04:10:28;;;;;;;7.60;2.30;;;2.50;99.90;;;;;;4929546;28;38639;-71
2023/04/03 04:12:54;;;;;;;6.83;2.70;;;2.50;99.90;;;;;;4919348;29;38326;-71
2023/04/03 04:15:21;;;;;;;7.10;2.50;;;2.50;99.90;;;;;;4913268;28;38420;-72
2023/04/03 04:17:47;;;;;;;6.17;2.50;;;2.40;99.90;;;;;;4924407;28;36452;-71
2023/04/03 04:20:14;;;;;;;4.37;2.37;;;2.40;99.90;;;;;;4911274;29;37909;-71
2023/04/03 04:22:40;;;;;;;4.97;2.53;;;2.40;99.90;;;;;;4926750;28;38443;-71
2023/04/03 04:25:06;;;;;;;4.20;2.13;;;2.30;99.90;;;;;;4928910;28;39087;-72
2023/04/03 04:27:33;;;;;;;6.07;2.70;;;2.30;99.90;;;;;;4926244;29;36793;-71
2023/04/03 04:29:59;;;;;;;7.43;2.73;;;2.30;99.90;;;;;;4927426;29;39808;-71
2023/04/03 04:32:25;;;;;;;7.47;2.90;;;2.20;99.90;;;;;;4922230;28;39032;-71
2023/04/03 04:34:51;;;;;;;5.87;2.77;;;2.20;99.90;;;;;;4929796;28;39003;-71
2023/04/03 04:37:17;;;;;;;5.40;2.87;;;2.20;99.90;;;;;;4929906;28;37804;-71
2023/04/03 04:39:43;;;;;;;6.17;3.10;;;2.30;99.90;;;;;;4911513;28;37707;-72
2023/04/03 04:42:12;;;;;;;4.37;2.73;;;2.30;99.90;;;;;;4920979;29;38025;-70
2023/04/03 04:44:39;;;;;;;4.33;2.60;;;2.20;99.90;;;;;;4925532;28;37892;-70
2023/04/03 04:47:05;;;;;;;4.40;2.60;;;2.20;99.90;;;;;;4920434;29;37998;-71
2023/04/03 04:49:31;;;;;;;7.47;3.27;;;2.20;99.90;;;;;;4927397;28;39493;-71
2023/04/03 04:51:57;;;;;;;7.80;2.73;;;2.20;99.90;;;;;;4930026;28;38161;-72
2023/04/03 04:54:24;;;;;;;6.93;2.80;;;2.10;99.90;;;;;;4926991;28;38040;-72
2023/04/03 04:56:50;;;;;;;8.80;3.23;;;2.10;99.90;;;;;;4919682;29;36425;-72
2023/04/03 04:59:16;;;;;;;4.83;2.83;;;2.10;99.90;;;;;;4924781;28;37593;-73
2023/04/03 05:01:42;;;;;;;7.07;3.50;;;2.10;99.90;;;;;;4925019;28;38100;-73
2023/04/03 05:04:09;;;;;;;5.70;2.83;;;2.10;99.90;;;;;;4912760;28;38567;-71
2023/04/03 05:06:35;;;;;;;6.17;2.97;;;2.10;99.90;;;;;;4928049;28;37192;-73
2023/04/03 05:09:01;;;;;;;9.50;3.30;;;2.10;99.90;;;;;;4926867;29;38990;-73
2023/04/03 05:11:27;;;;;;;7.83;3.13;;;2.10;99.90;;;;;;4922884;28;49132;-72
2023/04/03 05:13:54;;;;;;;6.77;2.90;;;2.00;99.90;;;;;;4922820;28;39058;-72
2023/04/03 05:16:20;;;;;;;9.80;3.43;;;2.00;99.90;;;;;;4930464;28;35362;-72
2023/04/03 05:18:46;;;;;;;8.87;3.43;;;2.00;99.90;;;;;;4927616;28;39928;-73
2023/04/03 05:21:12;;;;;;;7.43;3.13;;;2.10;99.90;;;;;;4909537;29;37516;-72
2023/04/03 05:23:38;;;;;;;6.83;3.10;;;2.10;99.90;;;;;;4911763;28;35825;-73
2023/04/03 05:26:05;;;;;;;6.53;3.13;;;2.10;99.90;;;;;;4928124;28;37448;-73
2023/04/03 05:28:31;;;;;;;6.77;2.97;;;2.10;99.90;;;;;;4934081;29;38861;-73
2023/04/03 05:30:58;;;;;;;7.03;3.23;;;2.10;99.90;;;;;;4906445;28;38761;-73
2023/04/03 05:33:26;;;;;;;10.87;3.70;;;2.10;99.90;;;;;;4923350;28;37985;-72
2023/04/03 05:35:53;;;;;;;7.40;2.83;;;2.20;99.90;;;;;;4915548;29;36428;-75
2023/04/03 05:38:19;;;;;;;6.40;3.10;;;2.10;99.90;;;;;;4916092;29;37577;-73
2023/04/03 05:40:46;;;;;;;7.87;4.13;;;2.20;99.90;;;;;;4910172;29;37044;-73
2023/04/03 05:43:12;;;;;;;6.57;2.80;;;2.20;99.90;;;;;;4929087;28;38084;-72
2023/04/03 05:45:38;;;;;;;5.33;3.40;;;2.20;99.90;;;;;;4907676;29;37208;-72
2023/04/03 05:48:04;;;;;;;8.07;3.37;;;2.20;99.90;;;;;;4919992;29;38401;-74
2023/04/03 05:50:31;;;;;;;6.50;3.47;;;2.20;99.90;;;;;;4901313;29;38358;-72
2023/04/03 05:52:58;;;;;;;7.13;3.03;;;2.30;99.90;;;;;;4911532;28;37130;-73
2023/04/03 05:55:25;;;;;;;5.97;3.17;;;2.40;99.90;;;;;;4929870;28;38191;-72
2023/04/03 05:57:51;;;;;;;8.57;3.30;;;2.30;99.90;;;;;;4912521;29;37621;-72
2023/04/03 06:00:17;;;;;;;7.27;3.20;;;2.40;99.90;;;;;;4925277;29;39597;-73
2023/04/03 06:02:44;;;;;;;7.30;3.53;;;2.40;99.90;;;;;;4921669;29;47389;-72
2023/04/03 06:05:11;;;;;;;6.43;3.27;;;2.50;99.90;;;;;;4924515;29;37297;-72
2023/04/03 06:07:37;;;;;;;9.70;3.30;;;2.60;99.90;;;;;;4925287;28;38597;-71
2023/04/03 06:10:05;;;;;;;7.67;3.57;;;2.60;99.90;;;;;;4914612;29;38131;-72
2023/04/03 06:12:31;;;;;;;7.13;3.70;;;2.70;99.90;;;;;;4929431;28;48508;-72
2023/04/03 06:14:57;;;;;;;8.07;3.53;;;2.80;99.90;;;;;;4928355;28;37525;-72
2023/04/03 06:17:24;;;;;;;5.27;2.93;;;2.80;99.90;;;;;;4912428;28;37482;-72
2023/04/03 06:19:50;;;;;;;8.23;3.43;;;2.80;99.90;;;;;;4920711;28;38391;-72
2023/04/03 06:22:16;;;;;;;7.80;3.43;;;2.90;99.90;;;;;;4908198;28;38637;-72
2023/04/03 06:24:43;;;;;;;6.70;3.37;;;3.00;99.90;;;;;;4920690;28;37934;-72
2023/04/03 06:27:11;;;;;;;5.60;3.00;;;3.00;99.90;;;;;;4924505;28;39893;-72
2023/04/03 06:29:37;;;;;;;6.80;2.97;;;3.10;99.90;;;;;;4907882;28;38505;-72
2023/04/03 06:32:03;;;;;;;5.73;3.30;;;3.10;99.90;;;;;;4910224;29;37060;-72
2023/04/03 06:34:29;;;;;;;8.27;2.63;;;3.20;99.90;;;;;;4914996;29;36636;-72
2023/04/03 06:36:55;;;;;;;5.13;2.87;;;3.20;99.90;;;;;;4913239;29;39088;-73
2023/04/03 06:39:25;;;;;;;7.07;3.00;;;3.30;99.90;;;;;;4914009;28;38969;-73
2023/04/03 06:41:51;;;;;;;6.60;2.77;;;3.30;99.90;;;;;;4916909;29;36915;-73
2023/04/03 06:44:17;;;;;;;8.90;3.03;;;3.40;99.90;;;;;;4930815;28;36725;-72
2023/04/03 06:46:46;;;;;;;7.00;2.83;;;3.40;99.90;;;;;;4912452;28;37722;-72
2023/04/03 06:49:12;;;;;;;7.90;2.70;;;3.50;99.90;;;;;;4928349;28;38540;-73
2023/04/03 06:51:38;;;;;;;8.53;2.70;;;3.50;99.90;;;;;;4923172;28;37872;-72
2023/04/03 06:54:06;;;;;;;6.57;3.10;;;3.60;99.90;;;;;;4924625;29;36277;-72
2023/04/03 06:56:32;;;;;;;9.90;2.53;;;3.60;99.90;;;;;;4910508;29;38099;-72
2023/04/03 06:58:59;;;;;;;6.50;2.73;;;3.70;99.90;;;;;;4921573;29;37544;-71
2023/04/03 07:01:27;;;;;;;6.00;2.63;;;3.80;99.90;;;;;;4925184;28;37805;-71
2023/04/03 07:03:54;;;;;;;7.23;2.03;;;3.80;99.90;;;;;;4891504;29;36999;-73
2023/04/03 07:06:21;;;;;;;5.67;2.70;;;3.90;99.90;;;;;;4885270;29;38606;-73
2023/04/03 07:08:48;;;;;;;9.33;2.57;;;3.90;99.90;;;;;;4887334;29;37264;-71
2023/04/03 07:11:16;;;;;;;8.40;2.43;;;4.00;99.90;;;;;;4889767;29;20078;-71
2023/04/03 07:13:43;;;;;;;4.80;2.40;;;4.10;99.90;;;;;;4891671;29;37459;-71
2023/04/03 07:16:09;;;;;;;10.00;3.27;;;4.10;99.90;;;;;;4893299;29;38667;-71
2023/04/03 07:18:35;;;;;;;4.40;2.50;;;4.10;99.90;;;;;;4887884;29;38250;-72
2023/04/03 07:21:02;;;;;;;8.87;2.00;;;4.20;99.90;;;;;;4892065;29;39554;-73
2023/04/03 07:23:28;;;;;;;5.93;2.00;;;4.20;99.90;;;;;;4891607;29;36742;-72
2023/04/03 07:25:55;;;;;;;5.60;2.00;;;4.20;99.90;;;;;;4890563;29;38860;-73
2023/04/03 07:28:22;;;;;;;5.53;2.53;;;4.20;99.90;;;;;;4892737;29;39791;-71
2023/04/03 07:30:51;;;;;;;4.17;2.20;;;4.30;99.90;;;;;;4899505;29;36972;-72
2023/04/03 07:33:21;;;;;;;5.67;2.33;;;4.30;99.90;;;;;;4895735;29;37094;-73
2023/04/03 07:35:48;;;;;;;5.37;2.40;;;4.30;99.90;;;;;;4890637;29;37377;-73
2023/04/03 07:38:14;;;;;;;7.83;2.20;;;4.30;99.90;;;;;;4892847;29;38260;-70
2023/04/03 07:40:49;;;;;;;5.80;2.67;;;4.30;99.90;;;;;;4889853;29;37108;-72
2023/04/03 07:43:16;;;;;;;7.03;2.40;;;4.40;99.90;;;;;;4883335;29;37949;-71
2023/04/03 07:45:43;;;;;;;5.33;2.10;;;4.40;99.90;;;;;;4881578;29;38503;-72
2023/04/03 07:48:12;;;;;;;6.93;2.20;;;4.50;99.90;;;;;;4889727;29;38234;-73
2023/04/03 07:50:42;;;;;;;5.87;2.07;;;4.60;99.90;;;;;;4889048;29;36740;-72
2023/04/03 07:53:09;;;;;;;5.80;1.97;;;4.60;99.90;;;;;;4885824;29;35835;-73
2023/04/03 07:55:42;;;;;;;5.87;2.47;;;4.70;99.90;;;;;;4885959;29;37138;-71
2023/04/03 07:58:14;;;;;;;6.63;2.47;;;4.70;99.90;;;;;;4891072;29;38314;-71
2023/04/03 08:00:41;;;;;;;6.85;2.00;;;4.80;99.90;;;;;;4895263;29;38191;-71
2023/04/03 08:03:09;;;;;;;5.83;1.93;;;5.00;99.90;;;;;;4900605;29;37132;-73
2023/04/03 08:05:40;;;;;;;5.87;2.50;;;5.00;99.90;;;;;;4914847;28;38820;-73
2023/04/03 08:08:07;;;;;;;7.03;1.80;;;5.10;99.90;;;;;;4907367;29;39169;-72
2023/04/03 08:10:33;;;;;;;7.47;1.80;;;5.10;99.90;;;;;;4908615;29;38013;-72
2023/04/03 08:13:00;;;;;;;4.90;2.27;;;5.20;99.90;;;;;;4911217;29;37844;-71
2023/04/03 08:15:26;;;;;;;8.00;2.17;;;5.40;99.90;;;;;;4908946;29;37673;-72
2023/04/03 08:17:53;;;;;;;4.67;1.80;;;5.50;99.90;;;;;;4908320;29;38302;-71
2023/04/03 08:20:20;;;;;;;9.47;2.43;;;5.60;99.90;;;;;;4912509;29;37837;-71
2023/04/03 08:22:46;;;;;;;6.50;1.97;;;5.70;99.90;;;;;;4905583;29;37612;-71
2023/04/03 08:25:12;;;;;;;7.43;2.47;;;5.90;99.90;;;;;;4902880;29;38674;-72
2023/04/03 08:27:39;;;;;;;4.23;1.67;;;6.00;99.90;;;;;;4906752;29;39274;-72
2023/04/03 08:30:06;;;;;;;6.97;2.07;;;6.20;99.90;;;;;;4901665;29;37195;-71
2023/04/03 08:32:34;;;;;;;9.00;2.60;;;6.20;99.90;;;;;;4904873;29;49536;-72
2023/04/03 08:35:01;;;;;;;4.60;1.70;;;6.20;99.90;;;;;;4920857;29;37864;-71
2023/04/03 08:37:27;;;;;;;4.50;1.70;;;6.30;99.90;;;;;;4901473;29;37154;-72
2023/04/03 08:39:53;;;;;;;3.37;1.50;;;6.50;99.90;;;;;;4912559;29;39042;-71
2023/04/03 08:42:49;;;;;;;4.77;1.60;;;6.70;99.90;;;;;;4906184;29;36212;-72
2023/04/03 08:45:50;;;;;;;4.07;1.50;;;6.80;99.90;;;;;;4922374;29;37746;-72
2023/04/03 08:48:21;;;;;;;6.20;1.97;;;6.90;99.90;;;;;;4902478;29;39321;-72
2023/04/03 08:50:54;;;;;;;7.17;1.90;;;7.10;99.90;;;;;;4901745;29;36996;-72
2023/04/03 08:53:26;;;;;;;8.30;2.27;;;7.10;99.90;;;;;;4912450;28;37853;-73
2023/04/03 08:55:53;;;;;;;4.07;1.57;;;7.20;99.90;;;;;;4920526;29;37833;-72
2023/04/03 08:58:22;;;;;;;5.90;2.07;;;7.30;99.90;;;;;;4898150;29;37804;-72
2023/04/03 09:01:03;;;;;;;6.90;2.10;;;7.40;99.90;;;;;;4920017;29;38824;-72
2023/04/03 09:03:38;;;;;;;5.73;2.10;;;7.60;99.90;;;;;;4912700;28;49630;-74
2023/04/03 09:06:25;;;;;;;3.47;1.33;;;7.50;99.90;;;;;;4910664;29;37549;-73
2023/04/03 09:08:56;;;;;;;6.17;1.77;;;7.50;99.90;;;;;;4928273;28;38555;-73
2023/04/03 09:11:37;;;;;;;6.90;1.92;;;7.80;99.90;;;;;;4914705;29;36920;-73
2023/04/03 09:14:27;;;;;;;5.00;1.50;;;7.80;99.90;;;;;;4912398;29;36758;-73
2023/04/03 09:17:23;;;;;;;6.20;1.63;;;7.80;99.90;;;;;;4916971;28;39269;-73
2023/04/03 09:19:58;;;;;;;5.03;1.63;;;7.90;99.90;;;;;;4914209;29;46661;-72
2023/04/03 09:22:27;;;;;;;5.63;1.63;;;8.10;99.90;;;;;;4910717;28;37964;-74
2023/04/03 09:25:08;;;;;;;4.90;1.57;;;8.20;99.90;;;;;;4909343;28;36083;-73
2023/04/03 09:27:34;;;;;;;4.50;1.30;;;8.30;99.90;;;;;;4925831;28;48325;-73
2023/04/03 09:30:00;;;;;;;2.17;1.13;;;8.30;99.90;;;;;;4917905;28;39169;-73
2023/04/03 09:32:32;;;;;;;3.73;1.20;;;8.20;99.90;;;;;;4927518;28;37852;-73
2023/04/03 09:35:10;;;;;;;1.83;1.03;;;8.40;99.90;;;;;;4908212;28;35589;-74
2023/04/03 09:37:46;;;;;;;3.87;1.13;;;8.40;99.90;;;;;;4913975;29;46945;-75
2023/04/03 09:40:30;;;;;;;2.83;0.80;;;8.50;99.90;;;;;;4915074;28;37361;-74
2023/04/03 09:43:00;;;;;;;2.73;1.10;;;8.60;99.90;;;;;;4920867;28;38345;-74
2023/04/03 09:45:32;;;;;;;3.23;1.00;;;8.80;99.90;;;;;;4903732;29;36467;-74
2023/04/03 09:48:05;;;;;;;1.93;1.03;;;8.90;99.90;;;;;;4921255;28;39177;-74
2023/04/03 09:50:31;;;;;;;3.35;1.15;;;9.00;99.90;;;;;;4905288;29;47261;-74
2023/04/03 09:52:57;;;;;;;3.47;0.87;;;9.00;99.90;;;;;;4912027;28;38270;-74
2023/04/03 09:55:29;;;;;;;2.90;0.90;;;9.00;99.90;;;;;;4921880;28;37797;-74
2023/04/03 09:57:58;;;;;;;1.05;0.65;;;8.90;99.90;;;;;;4909633;29;37738;-74
2023/04/03 10:00:34;;;;;;;2.00;0.70;;;8.90;99.90;;;;;;4920960;28;39663;-74
2023/04/03 10:03:02;;;;;;;3.13;1.33;;;8.80;99.90;;;;;;4924674;29;37765;-73
2023/04/03 10:05:35;;;;;;;1.83;0.90;;;8.80;99.90;;;;;;4903376;29;47642;-73
2023/04/03 10:08:13;;;;;;;6.77;1.17;;;8.70;99.90;;;;;;4921957;28;38861;-73
2023/04/03 10:10:45;;;;;;;4.03;1.17;;;8.90;99.90;;;;;;4933739;28;47319;-73
2023/04/03 10:13:12;;;;;;;2.97;1.10;;;8.90;99.90;;;;;;4941456;28;39302;-73
2023/04/03 10:15:50;;;;;;;3.43;1.10;;;9.20;99.90;;;;;;4945307;28;37996;-74
2023/04/03 10:18:38;;;;;;;4.87;0.87;;;9.50;99.90;;;;;;4944490;28;39715;-73
2023/04/03 10:21:19;;;;;;;2.13;1.03;;;9.80;99.90;;;;;;4938551;28;38921;-73
2023/04/03 10:23:54;;;;;;;3.27;0.73;;;9.90;99.90;;;;;;4939322;28;37567;-73
2023/04/03 10:26:37;;;;;;;3.43;1.10;;;10.10;99.90;;;;;;4939112;28;37419;-73
2023/04/03 10:29:21;;;;;;;;;;;10.10;99.90;;;;;;4926314;29;37771;-74
2023/04/03 10:32:09;;;;;;;2.50;0.73;;;9.90;99.90;;;;;;4940942;28;39454;-74
2023/04/03 10:34:44;;;;;;;2.23;0.80;;;10.10;99.90;;;;;;4931677;28;48282;-74
2023/04/03 10:37:55;;;;;;;2.37;0.77;;;10.10;99.90;;;;;;4916270;29;37518;-74
2023/04/03 10:40:36;;;;;;;3.87;0.87;;;10.40;99.90;;;;;;4909253;28;37864;-73
2023/04/03 10:43:31;;;;;;;2.00;0.70;;;10.40;99.90;;;;;;4911500;29;37620;-74
2023/04/03 10:46:11;;;;;;;1.00;0.40;;;10.50;99.90;;;;;;4926924;29;37743;-73
2023/04/03 10:49:07;;;;;;;6.23;0.60;;;10.40;99.90;;;;;;4923347;28;48795;-74
2023/04/03 10:51:48;;;;;;;1.07;0.50;;;10.40;99.90;;;;;;4921170;29;46052;-73
2023/04/03 10:54:23;;;;;;;1.63;0.70;;;10.40;99.90;;;;;;4924323;28;38733;-73
2023/04/03 10:57:01;;;;;;;2.90;0.67;;;10.60;99.90;;;;;;4908480;29;38245;-73
2023/04/03 10:59:38;;;;;;;1.20;0.70;;;10.40;99.90;;;;;;4930082;29;47710;-73
2023/04/03 11:02:15;;;;;;;1.27;0.40;;;10.70;99.90;;;;;;4922825;28;37575;-73
2023/04/03 11:04:44;;;;;;;0.70;0.25;;;10.70;99.90;;;;;;4926790;28;38340;-74
2023/04/03 11:07:16;;;;;;;4.15;0.45;;;10.80;99.90;;;;;;4921232;28;38227;-73
2023/04/03 11:09:46;;;;;;;3.53;0.40;;;10.80;99.90;;;;;;4911623;29;35737;-73
2023/04/03 11:12:47;;;;;;;1.90;0.20;;;10.70;99.90;;;;;;4910260;28;37727;-73
2023/04/03 11:15:16;;;;;;;3.17;0.30;;;10.90;99.90;;;;;;4912722;28;38276;-73
2023/04/03 11:17:55;;;;;;;0.75;0.22;;;10.70;98.10;;;;;;4912830;29;38333;-74
2023/04/03 11:20:32;;;;;;;1.42;0.55;;;10.60;96.70;;;;;;4927280;28;35934;-73
2023/04/03 11:23:11;;;;;;;0.60;0.20;;;10.50;97.00;;;;;;4905042;28;38578;-73
2023/04/03 11:25:41;;;;;;;2.77;0.40;;;10.70;98.30;;;;;;4903814;29;47163;-73
2023/04/03 11:28:13;;;;;;;0.70;0.60;;;10.70;98.80;;;;;;4932158;29;37681;-73
2023/04/03 11:30:45;;;;;;;2.80;0.57;;;10.80;99.90;;;;;;4908716;28;36298;-73
2023/04/03 11:33:33;;;;;;;1.20;0.47;;;11.00;98.70;;;;;;4916147;28;38722;-73
2023/04/03 11:36:09;;;;;;;12.03;0.90;;;10.80;96.30;;;;;;4925064;29;38603;-72
2023/04/03 11:38:41;;;;;;;1.95;0.57;;;10.60;95.50;;;;;;4919285;28;49391;-71
2023/04/03 11:41:10;;;;;;;0.77;0.45;;;10.80;96.80;;;;;;4905296;28;36132;-72
2023/04/03 11:43:59;;;;;;;0.63;0.32;;;10.80;98.40;;;;;;4928094;28;38932;-74
2023/04/03 11:46:53;;;;;;;4.28;0.60;;;11.00;99.00;;;;;;4911820;29;37702;-72
2023/04/03 11:49:50;;;;;;;1.55;0.60;;;10.80;98.40;;;;;;4913041;29;37297;-71
2023/04/03 11:52:38;;;;;;;1.13;0.55;;;11.00;99.90;;;;;;4922287;28;36830;-72
2023/04/03 11:55:20;;;;;;;1.08;0.40;;;11.30;99.90;;;;;;4919704;28;39376;-73
2023/04/03 11:57:58;;;;;;;1.23;0.60;;;11.40;99.90;;;;;;4925281;29;36600;-72
2023/04/03 12:00:43;;;;;;;1.17;0.40;;;11.40;98.60;;;;;;4912092;29;36966;-73
2023/04/03 12:03:24;;;;;;;0.80;0.40;;;11.60;97.90;;;;;;4914510;28;36636;-72
2023/04/03 12:06:11;;;;;;;3.05;0.70;;;11.20;97.70;;;;;;4909797;28;38159;-72
2023/04/03 12:08:40;;;;;;;3.45;0.75;;;10.90;98.30;;;;;;4881096;29;47122;-72
2023/04/03 12:13:56;;;;;;;1.25;0.55;;;11.30;98.90;;;;;;4926840;28;37476;-73
2023/04/03 12:16:30;;;;;;;1.40;0.60;;;11.50;98.90;;;;;;4921921;28;38110;-76
2023/04/03 12:19:03;;;;;;;1.35;0.52;;;11.60;99.10;;;;;;4910857;29;37435;-73
2023/04/03 12:21:30;;;;;;;1.77;0.40;;;11.70;98.30;;;;;;4909622;29;47267;-72
2023/04/03 12:24:08;;;;;;;0.52;0.52;;;11.20;98.70;;;;;;4924226;28;37753;-72
2023/04/03 12:26:55;;;;;;;0.80;0.40;;;11.20;98.70;;;;;;4928826;28;48258;-73
2023/04/03 12:29:32;;;;;;;1.17;0.52;;;11.20;99.90;;;;;;4921915;28;37297;-72
2023/04/03 12:32:07;;;;;;;1.73;0.70;;;11.60;99.90;;;;;;4926816;28;38132;-72
2023/04/03 12:34:42;;;;;;;1.23;0.38;;;11.60;98.20;;;;;;4918430;28;49141;-74
2023/04/03 12:37:59;;;;;;;1.02;0.60;;;11.40;96.70;;;;;;4920859;28;39950;-74
2023/04/03 12:40:34;;;;;;;0.95;0.50;;;11.60;97.70;;;;;;4903455;29;38923;-73
2023/04/03 12:43:28;;;;;;;1.65;0.50;;;11.30;98.40;;;;;;4916860;29;36778;-73
2023/04/03 12:46:07;;;;;;;1.05;0.50;;;11.80;98.70;;;;;;4922162;28;49705;-73
2023/04/03 12:48:58;;;;;;;2.90;0.80;;;11.80;99.90;;;;;;4925735;28;47975;-72
2023/04/03 12:51:44;;;;;;;0.45;0.38;;;12.00;99.90;;;;;;4911980;29;37479;-73
2023/04/03 12:54:16;;;;;;;0.57;0.40;;;12.00;98.40;;;;;;4914535;29;37383;-73
2023/04/03 12:56:42;;;;;;;0.30;0.30;;;11.90;98.80;;;;;;4923653;28;36092;-73
2023/04/03 12:59:26;;;;;;;2.05;0.68;;;12.10;97.60;;;;;;4914918;29;39980;-73
2023/04/03 13:01:58;;;;;;;1.75;0.50;;;12.10;98.00;;;;;;4920452;29;38355;-73
2023/04/03 13:04:26;;;;;;;0.80;0.40;;;12.20;97.80;;;;;;4900609;29;37098;-73
2023/04/03 13:06:52;;;;;;;1.08;0.60;;;12.50;99.30;;;;;;4914001;28;36109;-73
2023/04/03 13:09:22;;;;;;;2.88;0.60;;;12.80;99.90;;;;;;4902163;29;38136;-73
2023/04/03 13:11:51;;;;;;;1.48;0.50;;;12.90;99.90;;;;;;4928704;28;39731;-73
2023/04/03 13:14:20;;;;;;;3.95;0.50;;;13.10;99.20;;;;;;4918741;28;37337;-73
2023/04/03 13:16:55;;;;;;;1.30;0.50;;;12.50;98.30;;;;;;4914566;28;37863;-73
2023/04/03 13:19:27;;;;;;;1.05;0.50;;;12.30;99.10;;;;;;4911946;28;37702;-73